Terminal Aerodrome Forecast
Issued by NWS

Home | Current Version | Previous Version | Text Only | Print | Product List | Glossary On
Versions: 1 2 3 4 5 6 7 8 9 10 11 12 13 14
000
FTUS43 KICT 190900 AAA
TAFCNU
TAF AMD
KCNU 190943Z 1910/2006 16006KT 4SM BR SKC
      TEMPO 1910/1913 1SM BR
     FM191400 18008KT P6SM SCT040=

USA.gov is the U.S. government's official web portal to all federal, state and local government web resources and services.